Time;durP1;ratioP1;P1;durP2;ratioP2;P2;SDS_P1;SDS_P2;PMS_P1;PMS_P2;Temp;Humidity;BMP_temperature;BMP_pressure;BME280_temperature;BME280_humidity;BME280_pressure;Samples;Min_cycle;Max_cycle;Signal;HPM_P1;HPM_P2
2023/09/20 00:00:24;;;;;;;6.20;4.20;;;;;;;14.14;100.00;96651.83;111685;1244;22526;-80
2023/09/20 00:03:13;;;;;;;5.90;4.60;;;;;;;14.16;100.00;96651.20;111683;1244;22740;-80
2023/09/20 00:05:43;;;;;;;5.60;4.60;;;;;;;14.14;100.00;96652.63;111722;1244;22508;-80
2023/09/20 00:08:12;;;;;;;5.70;4.30;;;;;;;14.15;100.00;96658.48;111697;1244;22492;-80
2023/09/20 00:10:41;;;;;;;5.50;4.40;;;;;;;14.14;100.00;96656.30;111704;1244;24218;-80
2023/09/20 00:13:10;;;;;;;5.50;4.20;;;;;;;14.12;100.00;96656.20;111563;1244;36113;-80
2023/09/20 00:15:41;;;;;;;4.80;4.10;;;;;;;14.10;100.00;96657.24;111683;1244;26748;-80
2023/09/20 00:18:19;;;;;;;6.80;4.00;;;;;;;14.10;100.00;96665.59;111698;1244;23044;-80
2023/09/20 00:20:49;;;;;;;6.30;4.30;;;;;;;14.07;100.00;96660.41;111736;1244;24246;-81
2023/09/20 00:23:21;;;;;;;4.60;4.10;;;;;;;14.07;100.00;96659.54;111712;1244;22529;-80
2023/09/20 00:25:51;;;;;;;6.70;4.40;;;;;;;14.07;100.00;96663.86;111762;1244;22500;-80
2023/09/20 00:28:21;;;;;;;9.70;4.50;;;;;;;14.06;100.00;96659.56;111698;1244;22515;-80
2023/09/20 00:30:52;;;;;;;6.60;4.40;;;;;;;14.04;100.00;96663.44;111710;1244;22614;-80
2023/09/20 00:33:20;;;;;;;4.30;3.90;;;;;;;14.04;100.00;96664.58;111700;1244;22539;-80
2023/09/20 00:35:49;;;;;;;6.10;3.80;;;;;;;14.02;100.00;96667.43;111699;1244;22508;-80
2023/09/20 00:38:19;;;;;;;5.40;3.70;;;;;;;14.02;100.00;96665.67;111740;1244;22548;-80
2023/09/20 00:40:49;;;;;;;5.00;3.80;;;;;;;13.99;100.00;96671.08;111690;1244;22601;-80
2023/09/20 00:43:24;;;;;;;5.10;4.00;;;;;;;13.96;100.00;96673.16;111670;1244;24175;-80
2023/09/20 00:45:53;;;;;;;7.80;4.10;;;;;;;13.98;100.00;96673.80;111752;1244;22533;-80
2023/09/20 00:48:22;;;;;;;6.90;4.10;;;;;;;14.02;100.00;96672.77;111709;1244;22506;-80
2023/09/20 00:50:51;;;;;;;4.40;3.90;;;;;;;14.06;100.00;96673.42;111737;1244;22523;-80
2023/09/20 00:53:20;;;;;;;4.30;3.90;;;;;;;14.07;100.00;96670.26;111707;1228;22502;-80
2023/09/20 00:55:48;;;;;;;;;;;;;;;14.10;100.00;96672.30;111737;1244;22486;-80
2023/09/20 00:58:19;;;;;;;5.70;4.10;;;;;;;14.12;100.00;96675.66;111726;1244;22518;-80
2023/09/20 01:00:51;;;;;;;4.40;3.70;;;;;;;14.13;100.00;96680.27;111707;1244;24194;-79
2023/09/20 01:03:23;;;;;;;6.00;4.10;;;;;;;14.15;100.00;96677.23;111639;1244;38102;-79
2023/09/20 01:05:53;;;;;;;5.30;4.10;;;;;;;14.21;100.00;96677.80;111688;1244;22500;-79
2023/09/20 01:08:21;;;;;;;4.00;3.70;;;;;;;14.26;100.00;96680.54;111723;1244;25321;-79
2023/09/20 01:10:52;;;;;;;4.90;3.70;;;;;;;14.26;100.00;96684.30;111712;1244;22539;-79
2023/09/20 01:13:21;;;;;;;5.40;3.80;;;;;;;14.28;100.00;96678.67;111644;1244;54285;-79
2023/09/20 01:15:49;;;;;;;;;;;;;;;14.29;100.00;96679.24;111726;1244;22480;-80
2023/09/20 01:18:20;;;;;;;3.90;3.50;;;;;;;14.30;100.00;96680.66;111695;1238;22501;-80
2023/09/20 01:20:51;;;;;;;4.70;4.10;;;;;;;14.31;100.00;96680.26;111685;1244;22614;-80
2023/09/20 01:23:21;;;;;;;4.40;3.70;;;;;;;14.33;100.00;96677.92;111671;1244;22496;-80
2023/09/20 01:25:55;;;;;;;4.80;3.60;;;;;;;14.34;100.00;96682.60;111707;1244;22479;-80
2023/09/20 01:28:26;;;;;;;6.00;3.30;;;;;;;14.33;100.00;96683.63;111702;1244;22491;-80
2023/09/20 01:30:58;;;;;;;5.00;3.60;;;;;;;14.32;100.00;96679.80;111702;1244;22496;-79
2023/09/20 01:33:29;;;;;;;4.00;3.30;;;;;;;14.28;100.00;96678.98;111697;1244;22554;-79
2023/09/20 01:35:58;;;;;;;4.20;3.00;;;;;;;14.24;100.00;96685.58;111724;1244;24220;-79
2023/09/20 01:38:26;;;;;;;;;;;;;;;14.19;100.00;96685.27;111697;1244;22499;-79
2023/09/20 01:40:56;;;;;;;4.30;3.60;;;;;;;14.16;100.00;96684.04;111720;1244;22647;-79
2023/09/20 01:43:25;;;;;;;6.30;4.00;;;;;;;14.15;100.00;96689.12;111665;1244;44505;-79
2023/09/20 01:45:53;;;;;;;6.70;4.20;;;;;;;14.16;100.00;96690.70;111698;1244;22522;-80
2023/09/20 01:48:22;;;;;;;7.50;4.10;;;;;;;14.16;100.00;96688.09;112024;1244;22512;-79
2023/09/20 01:50:51;;;;;;;4.80;4.00;;;;;;;14.17;100.00;96689.95;111733;1244;22515;-80
2023/09/20 01:53:21;;;;;;;7.40;3.80;;;;;;;14.19;100.00;96690.16;111733;1244;22495;-80
2023/09/20 01:55:52;;;;;;;4.90;3.50;;;;;;;14.21;100.00;96688.19;111729;1244;22511;-79
2023/09/20 01:58:20;;;;;;;4.60;3.80;;;;;;;14.22;100.00;96692.84;111717;1244;22526;-79
2023/09/20 02:00:51;;;;;;;4.60;3.10;;;;;;;14.21;100.00;96690.75;111671;1244;22513;-79
2023/09/20 02:03:20;;;;;;;4.40;3.90;;;;;;;14.20;100.00;96691.14;111567;1244;33771;-79
2023/09/20 02:05:52;;;;;;;4.60;3.70;;;;;;;14.19;100.00;96690.91;111753;1244;22507;-79
2023/09/20 02:08:21;;;;;;;4.70;3.70;;;;;;;14.18;100.00;96693.06;111710;1244;22504;-79
2023/09/20 02:10:50;;;;;;;4.90;3.70;;;;;;;14.20;100.00;96692.11;111722;1244;22482;-78
2023/09/20 02:13:18;;;;;;;3.70;3.30;;;;;;;14.22;100.00;96687.96;111683;1244;22509;-79
2023/09/20 02:15:52;;;;;;;8.50;3.90;;;;;;;14.23;100.00;96687.70;111679;1244;24207;-79
2023/09/20 02:18:25;;;;;;;3.70;3.40;;;;;;;14.20;100.00;96685.23;111717;1239;24341;-78
2023/09/20 02:20:55;;;;;;;4.10;3.40;;;;;;;14.19;100.00;96684.19;111713;1244;22511;-79
2023/09/20 02:23:27;;;;;;;5.60;3.50;;;;;;;14.17;100.00;96684.70;111661;1244;60199;-79
2023/09/20 02:25:57;;;;;;;4.60;3.70;;;;;;;14.15;100.00;96683.25;111738;1244;22522;-79
2023/09/20 02:28:25;;;;;;;4.10;3.70;;;;;;;14.15;100.00;96685.77;111711;1244;22568;-79
2023/09/20 02:30:55;;;;;;;4.70;3.50;;;;;;;14.13;100.00;96688.07;111710;1244;22562;-79
2023/09/20 02:33:24;;;;;;;4.60;3.30;;;;;;;14.10;100.00;96686.64;111688;1244;22520;-79
2023/09/20 02:35:52;;;;;;;4.60;3.60;;;;;;;14.07;100.00;96685.21;111713;1244;22521;-79
2023/09/20 02:38:23;;;;;;;3.40;3.10;;;;;;;13.99;100.00;96687.77;111725;1244;22505;-79
2023/09/20 02:40:55;;;;;;;4.20;3.40;;;;;;;13.97;100.00;96690.69;111693;1244;22495;-79
2023/09/20 02:43:24;;;;;;;4.50;3.20;;;;;;;13.94;100.00;96687.34;111732;1244;22491;-79
2023/09/20 02:45:52;;;;;;;3.80;3.40;;;;;;;13.92;100.00;96687.73;111730;1244;22568;-79
2023/09/20 02:48:24;;;;;;;4.80;3.10;;;;;;;13.89;100.00;96686.67;111755;1244;23379;-79
2023/09/20 02:50:53;;;;;;;3.70;3.30;;;;;;;13.87;100.00;96690.14;111746;1244;22511;-79
2023/09/20 02:53:21;;;;;;;4.60;3.30;;;;;;;13.87;100.00;96688.33;111705;1244;38671;-79
2023/09/20 02:55:50;;;;;;;4.40;3.10;;;;;;;13.87;100.00;96690.02;111720;1244;22989;-79
2023/09/20 02:58:18;;;;;;;7.30;2.90;;;;;;;13.86;100.00;96687.75;111843;1244;25239;-79
2023/09/20 03:00:52;;;;;;;3.90;3.30;;;;;;;13.82;100.00;96684.77;111730;1244;22510;-78
2023/09/20 03:03:23;;;;;;;3.50;3.20;;;;;;;13.79;100.00;96684.96;111692;1244;23291;-78
2023/09/20 03:05:51;;;;;;;5.90;3.70;;;;;;;13.77;100.00;96685.53;111748;1244;22547;-78
2023/09/20 03:08:20;;;;;;;5.40;2.80;;;;;;;13.74;100.00;96685.38;111745;1244;25179;-78
2023/09/20 03:10:53;;;;;;;3.30;2.50;;;;;;;13.67;100.00;96684.61;111726;1244;25594;-78
2023/09/20 03:13:26;;;;;;;4.80;3.00;;;;;;;13.64;100.00;96685.34;111693;1239;22569;-78
2023/09/20 03:15:55;;;;;;;4.60;3.50;;;;;;;13.65;100.00;96684.38;111723;1228;22543;-78
2023/09/20 03:18:23;;;;;;;5.00;2.60;;;;;;;13.63;100.00;96682.17;111747;1244;22759;-77
2023/09/20 03:20:52;;;;;;;5.10;2.90;;;;;;;13.57;100.00;96680.73;111741;1244;25365;-78
2023/09/20 03:23:22;;;;;;;3.60;3.10;;;;;;;13.53;100.00;96679.66;111718;1244;22496;-78
2023/09/20 03:25:51;;;;;;;3.60;3.30;;;;;;;13.55;100.00;96679.71;111753;1244;22511;-79
2023/09/20 03:28:22;;;;;;;3.90;3.20;;;;;;;13.60;100.00;96683.09;111751;1244;22525;-78
2023/09/20 03:30:51;;;;;;;4.40;3.50;;;;;;;13.65;100.00;96682.45;111740;1244;22482;-78
2023/09/20 03:33:21;;;;;;;5.80;3.50;;;;;;;13.70;100.00;96687.10;111704;1244;37104;-78
2023/09/20 03:35:52;;;;;;;4.10;3.50;;;;;;;13.70;100.00;96687.16;111721;1244;22496;-78
2023/09/20 03:38:21;;;;;;;4.30;3.40;;;;;;;13.69;100.00;96688.31;111764;1244;22606;-78
2023/09/20 03:40:53;;;;;;;4.00;2.80;;;;;;;13.68;100.00;96688.87;111726;1244;25397;-78
2023/09/20 03:43:23;;;;;;;5.50;3.40;;;;;;;13.66;100.00;96689.00;111728;1244;22525;-79
2023/09/20 03:45:55;;;;;;;5.70;2.80;;;;;;;13.62;100.00;96690.54;111741;1244;22587;-78
2023/09/20 03:48:27;;;;;;;3.80;3.10;;;;;;;13.56;100.00;96690.83;111725;1244;23944;-78
2023/09/20 03:50:56;;;;;;;4.00;2.90;;;;;;;13.51;100.00;96691.52;111736;1243;22518;-78
2023/09/20 03:53:28;;;;;;;3.30;3.00;;;;;;;13.49;100.00;96690.56;111728;1244;25222;-78
2023/09/20 03:55:57;;;;;;;4.40;2.90;;;;;;;13.52;100.00;96692.94;111706;1243;23784;-78
2023/09/20 03:58:26;;;;;;;6.10;2.90;;;;;;;13.54;100.00;96690.60;111752;1244;22492;-78
2023/09/20 04:00:56;;;;;;;3.80;2.70;;;;;;;13.52;100.00;96688.30;111719;1244;22519;-78
2023/09/20 04:03:24;;;;;;;;;;;;;;;13.46;100.00;96693.94;111719;1244;25455;-79
2023/09/20 04:05:57;;;;;;;4.20;2.70;;;;;;;13.40;100.00;96690.49;111752;1244;22511;-78
2023/09/20 04:08:25;;;;;;;3.50;2.80;;;;;;;13.36;100.00;96693.25;111727;1244;22527;-78
2023/09/20 04:10:54;;;;;;;4.50;2.80;;;;;;;13.33;100.00;96693.24;111754;1244;22501;-79
2023/09/20 04:13:24;;;;;;;3.00;2.40;;;;;;;13.32;100.00;96697.17;111701;1244;26459;-79
2023/09/20 04:15:54;;;;;;;4.40;2.80;;;;;;;13.23;100.00;96693.97;111752;1244;22505;-78
2023/09/20 04:18:26;;;;;;;3.00;2.60;;;;;;;13.23;100.00;96697.27;111732;1244;25238;-79
2023/09/20 04:20:57;;;;;;;2.90;2.60;;;;;;;13.25;100.00;96702.89;111722;1244;22523;-78
2023/09/20 04:23:26;;;;;;;3.50;2.50;;;;;;;13.24;100.00;96704.09;111722;1244;43965;-79
2023/09/20 04:25:57;;;;;;;3.50;2.50;;;;;;;13.17;100.00;96707.75;111749;1244;22522;-79
2023/09/20 04:28:26;;;;;;;3.10;2.40;;;;;;;13.16;100.00;96707.86;111763;1244;24366;-79
2023/09/20 04:30:55;;;;;;;3.50;2.60;;;;;;;13.19;100.00;96707.73;111759;1244;22525;-79
2023/09/20 04:33:24;;;;;;;4.80;2.90;;;;;;;13.17;100.00;96711.62;111718;1244;22502;-78
2023/09/20 04:35:57;;;;;;;5.10;3.00;;;;;;;13.19;100.00;96714.47;111744;1243;24593;-79
2023/09/20 04:38:26;;;;;;;3.20;2.70;;;;;;;13.20;100.00;96718.36;111777;1244;24377;-78
2023/09/20 04:40:56;;;;;;;5.60;2.80;;;;;;;13.21;100.00;96720.46;111745;1243;22509;-78
2023/09/20 04:43:25;;;;;;;2.40;2.20;;;;;;;13.28;100.00;96718.96;111714;1244;22516;-78
2023/09/20 04:45:55;;;;;;;3.70;2.50;;;;;;;13.42;100.00;96716.45;111758;1244;22969;-78
2023/09/20 04:48:23;;;;;;;2.90;2.00;;;;;;;13.47;100.00;96719.02;111756;1244;22545;-78
2023/09/20 04:50:55;;;;;;;3.50;2.10;;;;;;;13.60;100.00;96721.39;111699;1244;22499;-78
2023/09/20 04:53:25;;;;;;;3.00;2.10;;;;;;;13.94;100.00;96721.66;111688;1244;22498;-78
2023/09/20 04:55:56;;;;;;;3.70;2.50;;;;;;;14.31;100.00;96725.85;111666;1244;25222;-78
2023/09/20 04:58:25;;;;;;;4.40;1.80;;;;;;;14.69;100.00;96718.88;111724;1240;22491;-78
2023/09/20 05:00:55;;;;;;;4.30;2.00;;;;;;;15.04;100.00;96720.88;111734;1244;22623;-78
2023/09/20 05:03:24;;;;;;;4.00;2.20;;;;;;;15.36;100.00;96722.25;111765;1244;22536;-78
2023/09/20 05:05:53;;;;;;;2.90;2.40;;;;;;;15.62;100.00;96720.96;111732;1244;22504;-78
2023/09/20 05:08:22;;;;;;;3.80;1.70;;;;;;;15.82;100.00;96722.09;111749;1244;22513;-78
2023/09/20 05:10:51;;;;;;;3.40;2.00;;;;;;;16.09;100.00;96721.47;111746;1244;22505;-78
2023/09/20 05:13:19;;;;;;;2.70;2.00;;;;;;;16.34;100.00;96716.42;111682;1244;27092;-79
2023/09/20 05:15:51;;;;;;;2.80;1.90;;;;;;;16.54;100.00;96720.05;111732;1244;24238;-79
2023/09/20 05:18:22;;;;;;;3.70;2.10;;;;;;;16.82;100.00;96722.98;111764;1244;22499;-78
2023/09/20 05:20:51;;;;;;;3.90;2.20;;;;;;;17.24;100.00;96721.44;111654;1240;25400;-79
2023/09/20 05:23:21;;;;;;;3.10;1.80;;;;;;;17.42;100.00;96721.20;111629;1244;44060;-79
2023/09/20 05:25:50;;;;;;;3.40;2.70;;;;;;;17.54;100.00;96722.19;111663;1244;22511;-79
2023/09/20 05:28:19;;;;;;;4.30;1.90;;;;;;;17.59;99.83;96720.54;111666;1244;22561;-79
2023/09/20 05:30:47;;;;;;;2.40;1.70;;;;;;;17.67;99.83;96721.73;111673;1244;22498;-79
2023/09/20 05:33:16;;;;;;;3.00;2.20;;;;;;;17.94;99.86;96726.73;111639;1244;41565;-79
2023/09/20 05:35:49;;;;;;;2.50;1.70;;;;;;;18.21;98.83;96724.98;111654;1230;22502;-79
2023/09/20 05:38:21;;;;;;;3.20;1.90;;;;;;;18.31;97.99;96728.21;111683;1244;22930;-79
2023/09/20 05:40:50;;;;;;;2.10;1.60;;;;;;;18.51;97.82;96731.65;111700;1244;22496;-79
2023/09/20 05:43:20;;;;;;;4.00;1.90;;;;;;;18.81;97.49;96732.42;111627;1244;58708;-79
2023/09/20 05:45:51;;;;;;;2.80;2.00;;;;;;;19.12;96.44;96728.86;111849;1244;22511;-79
2023/09/20 05:48:22;;;;;;;3.00;1.80;;;;;;;19.26;94.85;96728.51;112110;1244;24221;-79
2023/09/20 05:50:54;;;;;;;2.20;1.90;;;;;;;19.38;94.52;96727.85;112090;1244;22495;-79
2023/09/20 05:53:23;;;;;;;5.30;2.10;;;;;;;19.42;92.97;96728.20;112053;1244;36275;-80
2023/09/20 05:55:53;;;;;;;2.60;1.60;;;;;;;19.43;93.02;96727.64;112077;1244;22523;-79
2023/09/20 05:58:22;;;;;;;6.10;2.20;;;;;;;19.57;92.40;96728.44;112117;1244;22531;-80
2023/09/20 06:00:51;;;;;;;2.80;1.80;;;;;;;19.71;91.87;96731.50;112070;1244;22505;-80
2023/09/20 06:03:21;;;;;;;1.70;1.50;;;;;;;19.89;91.52;96733.09;112195;1244;32914;-82
2023/09/20 06:05:50;;;;;;;4.10;2.00;;;;;;;19.95;90.52;96737.52;111570;1244;22531;-79
2023/09/20 06:08:19;;;;;;;4.60;2.00;;;;;;;19.99;90.15;96739.46;111702;1244;22496;-79
2023/09/20 06:10:47;;;;;;;2.50;1.70;;;;;;;20.10;89.83;96740.34;111690;1234;25423;-79
2023/09/20 06:13:16;;;;;;;2.30;1.60;;;;;;;20.29;89.41;96741.16;111620;1244;42505;-79
2023/09/20 06:15:44;;;;;;;4.00;2.00;;;;;;;20.38;88.41;96741.81;111748;1244;24192;-79
2023/09/20 06:18:14;;;;;;;4.30;2.70;;;;;;;20.36;87.58;96743.21;112085;1244;22519;-79
2023/09/20 06:20:45;;;;;;;2.40;1.60;;;;;;;20.36;87.34;96744.96;112076;1244;22527;-79
2023/09/20 06:23:14;;;;;;;3.60;1.50;;;;;;;20.34;86.47;96748.45;112053;1244;44194;-79
2023/09/20 06:25:46;;;;;;;4.10;1.80;;;;;;;20.16;85.47;96748.35;112082;1244;22511;-80
2023/09/20 06:28:17;;;;;;;1.60;1.50;;;;;;;20.12;85.51;96750.79;112100;1244;22516;-79
2023/09/20 06:30:47;;;;;;;1.90;1.60;;;;;;;20.08;85.44;96753.24;112072;1244;23492;-79
2023/09/20 06:33:16;;;;;;;1.80;1.60;;;;;;;20.09;84.80;96753.44;112110;1244;42570;-79
2023/09/20 06:35:45;;;;;;;2.70;1.70;;;;;;;20.03;84.41;96751.19;112105;1244;22513;-80
2023/09/20 06:38:13;;;;;;;3.60;1.70;;;;;;;20.05;84.41;96757.02;112061;1244;25314;-80
2023/09/20 06:40:42;;;;;;;2.10;1.90;;;;;;;20.08;83.96;96753.24;112082;1244;22589;-80
2023/09/20 06:43:11;;;;;;;3.10;1.70;;;;;;;20.14;83.93;96756.28;112068;1244;41607;-80
2023/09/20 06:45:47;;;;;;;4.10;2.20;;;;;;;20.14;82.73;96756.22;112110;1244;22528;-84
2023/09/20 06:48:16;;;;;;;3.00;1.60;;;;;;;19.95;82.62;96764.11;112120;1244;22602;-83
2023/09/20 06:50:45;;;;;;;3.90;1.80;;;;;;;20.03;83.28;96763.47;112094;1244;23174;-83
2023/09/20 06:53:13;;;;;;;1.80;1.70;;;;;;;20.20;83.40;96765.33;112065;1244;37437;-84
2023/09/20 06:55:42;;;;;;;2.30;1.80;;;;;;;20.25;82.79;96769.17;112138;1244;22529;-76
2023/09/20 06:58:10;;;;;;;3.90;2.20;;;;;;;20.24;82.39;96765.73;112108;1244;22554;-83
2023/09/20 07:00:39;;;;;;;2.40;2.00;;;;;;;20.26;82.19;96767.50;112083;1244;22674;-85
2023/09/20 07:03:10;;;;;;;2.70;1.80;;;;;;;20.29;82.09;96764.55;112067;1244;36848;-84
2023/09/20 07:05:41;;;;;;;2.50;2.00;;;;;;;20.33;82.19;96767.35;112125;1244;22505;-84
2023/09/20 07:08:10;;;;;;;2.30;1.90;;;;;;;20.48;82.29;96769.23;112168;1244;25244;-83
2023/09/20 07:10:42;;;;;;;;;;;;;;;20.60;81.76;96772.84;112150;1241;22570;-82
2023/09/20 07:13:11;;;;;;;2.80;2.00;;;;;;;20.61;81.80;96774.11;112129;1244;49395;-84
2023/09/20 07:15:42;;;;;;;3.00;2.10;;;;;;;20.72;81.43;96772.43;112217;1244;22514;-87
2023/09/20 07:18:11;;;;;;;4.60;2.10;;;;;;;20.70;80.27;96773.98;112184;1244;22505;-85
2023/09/20 07:20:41;;;;;;;4.20;1.90;;;;;;;20.47;80.47;96774.91;112156;1244;22539;-85
2023/09/20 07:23:12;;;;;;;4.00;2.00;;;;;;;20.47;80.22;96771.19;112100;1244;34281;-85
2023/09/20 07:25:42;;;;;;;2.10;1.70;;;;;;;20.35;80.21;96779.73;112161;1244;22962;-85
2023/09/20 07:28:16;;;;;;;3.80;2.00;;;;;;;20.33;79.59;96776.64;112076;1244;22519;-84
2023/09/20 07:30:50;;;;;;;2.70;1.80;;;;;;;20.06;79.86;96779.74;112165;1244;22498;-85
2023/09/20 07:33:23;;;;;;;4.00;2.20;;;;;;;20.09;80.66;96781.04;112114;1244;52711;-85
2023/09/20 07:36:00;;;;;;;4.10;2.00;;;;;;;20.13;80.61;96780.52;112129;1244;25479;-85
2023/09/20 07:38:29;;;;;;;5.70;2.10;;;;;;;20.27;81.03;96782.85;111983;1244;196475;-84
2023/09/20 07:41:09;;;;;;;2.80;1.70;;;;;;;20.35;80.40;96789.80;112153;1244;22510;-85
2023/09/20 07:43:38;;;;;;;3.60;2.20;;;;;;;20.35;79.37;96789.64;112095;1244;37471;-84
2023/09/20 07:46:13;;;;;;;1.90;1.60;;;;;;;20.18;79.80;96788.95;112133;1244;22502;-83
2023/09/20 07:48:47;;;;;;;4.70;2.00;;;;;;;20.16;80.18;96788.20;112177;1244;22496;-84
2023/09/20 07:51:20;;;;;;;3.00;2.00;;;;;;;20.27;79.86;96793.14;112171;1244;24188;-83
2023/09/20 07:53:53;;;;;;;4.10;1.90;;;;;;;20.25;79.30;96797.63;112112;1244;41753;-86
2023/09/20 07:56:43;;;;;;;3.00;1.50;;;;;;;20.22;80.12;96794.69;112186;1244;22500;-86
2023/09/20 07:59:13;;;;;;;;;;;;;;;20.59;80.96;96798.65;112166;1244;22485;-87
2023/09/20 08:01:56;;;;;;;2.30;2.00;;;;;;;20.88;79.98;96803.02;112174;1244;22564;-87
2023/09/20 08:04:24;;;;;;;2.30;2.10;;;;;;;20.85;78.25;96801.52;112108;1244;38075;-87
2023/09/20 08:06:55;;;;;;;2.70;1.90;;;;;;;20.72;77.89;96802.52;112192;1244;22991;-89
2023/09/20 08:09:24;;;;;;;3.80;2.10;;;;;;;20.47;76.56;96799.59;112154;1244;24182;-87
2023/09/20 08:11:52;;;;;;;5.40;2.20;;;;;;;20.23;75.54;96800.10;111746;1244;23360;-87
2023/09/20 08:14:21;;;;;;;4.60;2.00;;;;;;;19.99;74.45;96799.86;111627;1244;25444;-86
2023/09/20 08:19:36;;;;;;;4.00;2.30;;;;;;;19.82;74.00;96795.21;111730;1244;22509;-87
2023/09/20 08:22:04;;;;;;;3.30;2.00;;;;;;;19.68;73.30;96797.11;111735;1244;22561;-85
2023/09/20 09:00:54;;;;;;;1.90;1.70;;;;;;;20.28;72.87;96787.65;111753;1244;22508;-88
2023/09/20 09:03:24;;;;;;;3.40;2.00;;;;;;;20.72;73.32;96785.03;111721;1244;22511;-86
2023/09/20 09:05:53;;;;;;;2.40;1.70;;;;;;;20.90;72.55;96783.33;111727;1244;22530;-87
2023/09/20 09:08:22;;;;;;;3.20;1.90;;;;;;;20.80;71.38;96789.21;111738;1244;25339;-87
2023/09/20 09:10:51;;;;;;;4.40;1.70;;;;;;;20.94;72.62;96786.63;111721;1244;25235;-88
2023/09/20 09:13:21;;;;;;;3.90;1.60;;;;;;;21.18;73.08;96787.17;111599;1244;23449;-87
2023/09/20 09:15:50;;;;;;;1.90;1.70;;;;;;;21.40;72.66;96787.27;111495;1244;22506;-88
2023/09/20 09:18:21;;;;;;;;;;;;;;;21.42;71.21;96786.88;111364;1244;22504;-89
2023/09/20 09:20:51;;;;;;;2.60;1.80;;;;;;;21.37;69.46;96783.80;111507;1244;22598;-85
2023/09/20 09:23:33;;;;;;;2.80;1.60;;;;;;;21.07;69.58;96786.10;111656;1244;22496;-86
2023/09/20 09:26:02;;;;;;;2.80;1.60;;;;;;;21.22;70.78;96787.43;111696;1244;22510;-88
2023/09/20 09:28:31;;;;;;;4.20;2.20;;;;;;;21.26;69.55;96788.11;111667;1244;24251;-84
2023/09/20 09:31:06;;;;;;;3.00;1.70;;;;;;;21.13;68.51;96781.40;111690;1244;22519;-89
2023/09/20 09:33:38;;;;;;;1.90;1.60;;;;;;;20.94;69.15;96784.40;111670;1244;22547;-87
2023/09/20 09:36:08;;;;;;;4.60;1.80;;;;;;;21.15;69.50;96785.54;111736;1244;22485;-84
2023/09/20 09:38:39;;;;;;;2.00;1.60;;;;;;;21.11;68.71;96788.20;111746;1244;22648;-85
2023/09/20 09:41:10;;;;;;;1.60;1.50;;;;;;;21.13;69.57;96785.88;111729;1244;24188;-87
2023/09/20 09:43:38;;;;;;;2.80;1.80;;;;;;;21.43;70.43;96789.64;111715;1244;22499;-85
2023/09/20 09:46:10;;;;;;;2.10;1.90;;;;;;;21.58;68.28;96783.42;111739;1244;22517;-86
2023/09/20 09:48:42;;;;;;;2.90;2.00;;;;;;;21.19;65.30;96782.41;111712;1244;22517;-86
2023/09/20 09:51:12;;;;;;;2.90;1.70;;;;;;;20.87;65.80;96777.71;111743;1244;22502;-86
2023/09/20 09:53:45;;;;;;;2.40;1.60;;;;;;;20.93;66.48;96780.42;111720;1244;22504;-86
2023/09/20 09:56:15;;;;;;;2.00;1.50;;;;;;;21.11;66.37;96782.88;111795;1244;22507;-85
2023/09/20 09:58:43;;;;;;;2.70;1.70;;;;;;;21.02;65.59;96781.23;111778;1244;22495;-84
2023/09/20 10:01:14;;;;;;;2.80;1.50;;;;;;;20.97;66.44;96781.38;111729;1244;22489;-85
2023/09/20 10:03:50;;;;;;;2.70;1.70;;;;;;;20.91;64.42;96776.76;111721;1244;22497;-87
2023/09/20 10:06:22;;;;;;;4.80;2.00;;;;;;;20.87;65.45;96777.33;111771;1244;22485;-84
2023/09/20 10:08:53;;;;;;;3.00;1.80;;;;;;;20.84;64.91;96780.09;111779;1244;22506;-87
2023/09/20 10:11:24;;;;;;;5.30;2.40;;;;;;;20.89;65.65;96775.70;111783;1244;23216;-88
2023/09/20 10:13:54;;;;;;;2.20;1.80;;;;;;;20.96;65.58;96780.27;111682;1243;27036;-88
2023/09/20 10:16:24;;;;;;;3.60;1.80;;;;;;;21.17;66.19;96777.52;111745;1244;22537;-88
2023/09/20 10:18:57;;;;;;;;;;;;;;;21.38;65.75;96777.57;111728;1244;22495;-86
2023/09/20 10:21:30;;;;;;;2.00;1.60;;;;;;;21.48;65.68;96775.38;111735;1244;22507;-85
2023/09/20 10:24:00;;;;;;;4.80;2.30;;;;;;;21.45;64.16;96772.84;111807;1244;25200;-88
2023/09/20 10:26:33;;;;;;;2.70;2.10;;;;;;;21.18;63.90;96769.91;111710;1244;22498;-89
2023/09/20 10:29:22;;;;;;;3.40;2.00;;;;;;;21.16;64.89;96778.64;111720;1244;22503;-87
2023/09/20 10:31:53;;;;;;;3.10;1.80;;;;;;;21.19;65.35;96778.71;111960;1244;22652;-85
2023/09/20 10:34:23;;;;;;;3.10;1.60;;;;;;;21.34;65.49;96775.23;111693;1244;22541;-88
2023/09/20 10:36:53;;;;;;;2.90;1.80;;;;;;;21.49;65.75;96765.70;111734;1244;22519;-88
2023/09/20 10:39:29;;;;;;;2.20;1.60;;;;;;;21.60;65.25;96763.14;111764;1244;22637;-87
2023/09/20 10:42:09;;;;;;;1.90;1.70;;;;;;;21.62;65.77;96762.73;111748;1244;25334;-87
2023/09/20 10:44:40;;;;;;;2.90;2.10;;;;;;;21.66;65.60;96762.30;111722;1244;23807;-89
2023/09/20 10:47:12;;;;;;;3.70;2.10;;;;;;;21.75;65.63;96753.44;111743;1244;25369;-88
2023/09/20 10:49:49;;;;;;;4.30;2.20;;;;;;;21.79;65.86;96753.45;111762;1244;22532;-88
2023/09/20 10:52:56;;;;;;;2.50;1.80;;;;;;;21.69;64.61;96751.05;111763;1244;22635;-87
2023/09/20 10:55:40;;;;;;;3.80;2.00;;;;;;;21.44;64.24;96750.08;111733;1244;22506;-89
2023/09/20 10:58:09;;;;;;;3.10;1.90;;;;;;;21.45;64.92;96743.70;111787;1244;26545;-89
2023/09/20 11:00:37;;;;;;;3.40;2.00;;;;;;;21.48;64.60;96738.08;111770;1244;24373;-89
2023/09/20 11:03:07;;;;;;;2.90;1.90;;;;;;;21.53;64.80;96734.15;111709;1244;25021;-88
2023/09/20 11:05:38;;;;;;;2.60;1.60;;;;;;;21.60;64.85;96737.39;111738;1244;22583;-89
2023/09/20 11:08:10;;;;;;;2.60;1.90;;;;;;;21.58;64.44;96729.26;111853;1244;24532;-89
2023/09/20 11:10:40;;;;;;;2.60;1.50;;;;;;;21.64;64.58;96725.08;111811;1244;22515;-87
2023/09/20 11:13:14;;;;;;;1.80;1.60;;;;;;;21.71;64.00;96723.96;111820;1244;27777;-89
2023/09/20 11:15:46;;;;;;;2.30;1.80;;;;;;;21.69;62.78;96718.13;111736;1244;22536;-86
2023/09/20 11:18:19;;;;;;;3.10;1.50;;;;;;;21.46;62.09;96723.94;111741;1244;22543;-88
2023/09/20 11:20:49;;;;;;;2.80;1.30;;;;;;;21.43;62.56;96721.55;111725;1244;22510;-87
2023/09/20 11:23:20;;;;;;;2.90;1.40;;;;;;;21.48;62.17;96722.89;111698;1244;22508;-86
2023/09/20 11:25:55;;;;;;;2.70;1.30;;;;;;;21.49;61.45;96725.16;111703;1244;24360;-89
2023/09/20 11:28:27;;;;;;;3.50;1.50;;;;;;;21.57;60.84;96721.67;111757;1244;22509;-88
2023/09/20 11:30:57;;;;;;;2.40;1.20;;;;;;;21.72;60.85;96723.98;111885;1244;22502;-88
2023/09/20 11:33:30;;;;;;;2.70;1.60;;;;;;;21.81;60.48;96723.52;111707;1237;26289;-86
2023/09/20 11:35:59;;;;;;;2.00;1.40;;;;;;;21.87;60.64;96721.27;111779;1244;22508;-88
2023/09/20 11:38:28;;;;;;;3.00;1.60;;;;;;;21.97;60.27;96712.94;111766;1244;22518;-86
2023/09/20 11:40:57;;;;;;;3.00;1.60;;;;;;;21.99;59.84;96715.48;111740;1244;25174;-89
2023/09/20 11:43:30;;;;;;;1.70;1.30;;;;;;;21.99;60.15;96714.01;111730;1244;22502;-89
2023/09/20 11:45:58;;;;;;;1.30;1.20;;;;;;;22.05;59.52;96707.34;111743;1244;23863;-88
2023/09/20 11:48:28;;;;;;;3.90;1.50;;;;;;;22.02;59.57;96706.83;111755;1244;22504;-87
2023/09/20 11:50:57;;;;;;;1.80;1.10;;;;;;;22.10;59.55;96705.88;111815;1244;24836;-87
2023/09/20 11:53:30;;;;;;;1.50;1.20;;;;;;;22.05;58.82;96702.52;111706;1244;30482;-86
2023/09/20 11:56:01;;;;;;;1.30;1.10;;;;;;;22.09;58.83;96698.84;111727;1244;24026;-85
2023/09/20 11:58:33;;;;;;;3.10;1.50;;;;;;;22.18;59.50;96693.19;111803;1244;22561;-86
2023/09/20 12:01:05;;;;;;;4.00;1.40;;;;;;;22.30;59.43;96691.30;111791;1244;22517;-88
2023/09/20 12:03:33;;;;;;;2.70;1.40;;;;;;;22.25;58.18;96693.05;111755;1244;25707;-89
2023/09/20 12:06:03;;;;;;;3.90;1.30;;;;;;;22.24;59.21;96694.24;111746;1244;22538;-89
2023/09/20 12:08:32;;;;;;;3.30;1.50;;;;;;;22.41;59.34;96691.63;111784;1244;22508;-89
2023/09/20 12:11:01;;;;;;;2.20;1.40;;;;;;;22.53;59.80;96692.04;111748;1244;22517;-88
2023/09/20 12:13:29;;;;;;;1.60;1.10;;;;;;;22.66;59.49;96686.30;111675;1244;22518;-86
2023/09/20 12:15:58;;;;;;;2.80;1.40;;;;;;;22.68;58.90;96680.45;111737;1244;22520;-83
2023/09/20 12:18:27;;;;;;;2.60;1.10;;;;;;;22.61;58.24;96674.42;111821;1244;22516;-86